Erwin, Tennessee
Current Conditions -  °F | °C
As of 5:55 PM on Saturday 25 Oct 2014 (Local Time) from K0A9 Reporting Station
Few Clouds Few Clouds  
Wind Chill: 63°   Ceiling: Unl
Heat Index: 63°   Visibility: 10mi
Dew Point: 46°   Wind: 5mph
Humidity: 55%   Direction: 260°W
Pressure: 30.01"   Gusts: NA
Location:  36.14°N, 82.42°W
Report Text: K0A9 252155Z AUTO 26004KT 10SM FEW045 17/08 A3001 RMK
Loading
Personal Weather Stations






























Interactive Weather Map
Tropical Storm Tracking
New forecast layout! Learn more

10-Day Weather Forecast

Advertisements
Track Severe Weather on mobile